Portada
METAR-TAF:

METAR-TAF

Aeroports :

Birmingham, Alabama, Estats Units d'Amèrica

latitud: 33-33-56N, longitud: 086-44-42W, altitud: 196 m

Observació

L'informe es va fer fa 1 hora i 3 minuts, a les 10:53 UTC
Vent 4 kt del Oest
Temperatura 13°C
Humitat 94%
Pressió 1019 hPa
Visibilitat: 16.1 km
Núvols disperses a una alçada de 8000 ft

METAR: KBHM 261053Z 27004KT 10SM SCT080 13/12 A3010 RMK AO2 SLP187 T01330117

Hora: 05:56 (11:56 UTC)

Pronòstic

L'informe es va fer fa 17 minuts, a les 11:39 UTC
Pronòstic vàlid del 26 a les 12 UTC al 27 a les 12 UTC
Vent 3 kt amb direcció variable
Visibilitat: 10 km
Cel ennuvolat a una alçada de 8000 ft
A partir de les 26 a les 1700 UTC
Vent 6 kt del Oest
Visibilitat: 10 km
Cel clar
A partir de les 27 a les 0000 UTC
Vent kt del Nord
Visibilitat: 10 km
Cel clar

TAF: KBHM 261139Z 2612/2712 VRB03KT P6SM BKN080 FM261700 28006KT P6SM SKC FM270000 00000KT P6SM SKC

Observacions i pronòstics meteorològics de més de 4000 aeroports (METAR i TAF).

Les estacions disponibles són els punts grocs i vermells al mapa.

Posi el ratolí al punt desitjat per veure el nom de l'estació.

Feu clic per veure les observacions i els pronòstics meteorològics.

Per canviar el mapa: feu clic els botons verds amb una creu de color negre per apropar; al botó verd amb un guió per allunyar la imatge; o en les fletxes verdes per a mapes adjacents.


METAR-TAF: